Flight Track Log - Related Links

Times and Time Zones

All times are in EDT time to prevent confusion due to time zone crossing. See the SKW6526 flight status page for this flight to view local times or setup timezone preferences in your user account.

Time Position Orientation Groundspeed Altitude Reporting Facility
EDT Latitude Longitude Course Direction KTS MPH feet Rate Location/Type
Sat 01:48:05 PM 33.4333 -111.9833 273° West 172 198 2,200  Level Phoenix TRACON
Sat 01:49:18 PM 33.4378 -111.9125 86° East 202 232 4,300 2,267 Climbing Albuquerque Center
Sat 01:50:00 PM 33.4333 -112.3788 270° West  Level FlightAware Approximate
Sat 01:50:20 PM 33.4122 -111.8461 115° Southeast 220 253 7,300  Level Albuquerque Center
Sat 01:51:00 PM 33.4383 -112.5049 273° West  Level FlightAware Approximate
Sat 01:51:22 PM 33.3842 -111.9072 241° Southwest 216 249 9,700  Level Albuquerque Center
Sat 01:52:00 PM 33.4434 -112.6311 273° West  Level FlightAware Approximate
Sat 01:52:24 PM 33.3911 -111.9892 276° West 247 284 10,800  Level Albuquerque Center
Sat 01:53:00 PM 33.4483 -112.7572 273° West  Level FlightAware Approximate
Sat 01:53:25 PM 33.3981 -112.0889 275° West 296 341 12,800  Level Albuquerque Center
Sat 01:54:27 PM 33.4058 -112.1892 275° West 302 348 14,900 1,839 Climbing Albuquerque Center
Sat 01:55:29 PM 33.4142 -112.2911 276° West 306 352 16,600 1,790 Climbing Albuquerque Center
Sat 01:56:31 PM 33.4214 -112.3950 275° West 311 358 18,600 1,951 Climbing Albuquerque Center
Sat 01:57:32 PM 33.4308 -112.5200 275° West 315 362 20,600 1,512 Climbing Albuquerque Center
Sat 01:58:34 PM 33.4378 -112.6100 275° West 316 364 21,700 1,258 Climbing Albuquerque Center
Sat 01:59:36 PM 33.4475 -112.7386 275° West 322 371 23,200 1,306 Climbing Albuquerque Center
Sat 02:00:38 PM 33.4622 -112.8458 279° West 327 376 24,400 1,113 Climbing Albuquerque Center
Sat 02:01:40 PM 33.4975 -112.9475 293° West 332 382 25,500 1,024 Climbing Albuquerque Center
Sat 02:02:41 PM 33.5353 -113.0508 294° West 337 388 26,500 829 Climbing Albuquerque Center
Sat 02:03:43 PM 33.5725 -113.1550 293° West 341 392 27,200 774 Climbing Albuquerque Center
Sat 02:04:45 PM 33.6103 -113.2619 293° West 346 398 28,100 871 Climbing Albuquerque Center
Sat 02:05:47 PM 33.6542 -113.3869 293° West 348 400 29,000 774 Climbing Albuquerque Center
Sat 02:06:49 PM 33.6931 -113.4967 293° West 354 407 29,700 488 Climbing Albuquerque Center
Sat 02:07:50 PM 33.7325 -113.6086 293° West 360 414 30,000 146 Climbing Albuquerque Center
Sat 02:08:52 PM 33.7722 -113.7244 292° West 370 426 30,000  Level Albuquerque Center
Sat 02:09:54 PM 33.8150 -113.8450 293° West 386 444 30,000  Level Albuquerque Center
Sat 02:10:56 PM 33.8567 -113.9656 293° West 390 449 30,000  Level Albuquerque Center
Sat 02:11:57 PM 33.9064 -114.1089 293° West 387 445 30,000  Level Albuquerque Center
Sat 02:12:59 PM 33.9481 -114.2275 293° West 386 444 30,000  Level Albuquerque Center
Sat 02:14:01 PM 33.9881 -114.3475 292° West 384 442 30,000  Level Albuquerque Center
Sat 02:15:02 PM 34.0269 -114.4669 291° West 384 442 30,000  Level Albuquerque Center
Sat 02:16:04 PM 34.0664 -114.5850 292° West 382 440 30,000  Level Albuquerque Center
Sat 02:17:14 PM 34.1019 -114.7311 286° West 382 440 30,000  Level Los Angeles Center
Sat 02:18:16 PM 34.1047 -114.8556 272° West 375 432 30,000  Level Los Angeles Center
Sat 02:19:18 PM 34.1069 -114.9783 271° West 369 425 30,000  Level Los Angeles Center
Sat 02:20:20 PM 34.1078 -115.1039 270° West 374 430 30,000  Level Los Angeles Center
Sat 02:21:23 PM 34.1092 -115.2528 271° West 372 428 30,000  Level Los Angeles Center
Sat 02:22:25 PM 34.1100 -115.3767 271° West 373 429 30,000 -48 Level Los Angeles Center
Sat 02:23:27 PM 34.1117 -115.5003 271° West 370 426 29,900 -581 Descending Los Angeles Center
Sat 02:24:29 PM 34.1122 -115.6297 270° West 384 442 28,800 -919 Descending Los Angeles Center
Sat 02:25:31 PM 34.1117 -115.7636 270° West 399 459 28,000 -387 Descending Los Angeles Center
Sat 02:26:33 PM 34.0950 -115.8919 261° West 393 452 28,000 -242 Level Los Angeles Center
Sat 02:27:35 PM 34.0717 -116.0422 259° West 384 442 27,500 -871 Descending Los Angeles Center
Sat 02:28:37 PM 34.0522 -116.1700 260° West 388 447 26,200 -1,258 Descending Los Angeles Center
Sat 02:29:39 PM 34.0342 -116.2956 260° West 382 440 24,900 -1,258 Descending Los Angeles Center
Sat 02:30:41 PM 34.0158 -116.4153 260° West 368 423 23,600 -1,161 Descending Los Angeles Center
Sat 02:31:43 PM 34.0025 -116.5369 263° West 367 422 22,500 -1,113 Descending Los Angeles Center
Sat 02:32:45 PM 33.9897 -116.6822 264° West 366 421 21,300 -1,161 Descending Los Angeles Center
Sat 02:33:47 PM 33.9794 -116.8017 264° West 361 415 20,100 -1,152 Descending Los Angeles Center
Sat 02:34:50 PM 33.9667 -116.9333 263° West 349 402 18,900 -1,163 Descending Southern California TRACON
Sat 02:35:56 PM 33.9667 -117.0500 270° West 348 400 17,600 -1,140 Descending Southern California TRACON
Sat 02:36:51 PM 33.9500 -117.1667 260° West 345 397 16,600 -1,043 Descending Southern California TRACON
Sat 02:37:51 PM 33.9333 -117.2667 259° West 338 389 15,600 -1,000 Descending Southern California TRACON
Sat 02:38:51 PM 33.9333 -117.3833 270° West 335 386 14,600 -992 Descending Southern California TRACON
Sat 02:39:58 PM 33.9167 -117.5167 261° West 337 388 13,500 -992 Descending Southern California TRACON
Sat 02:40:58 PM 33.9333 -117.6167 281° West 344 396 12,500 -900 Descending Southern California TRACON
Sat 02:41:58 PM 33.9500 -117.7333 280° West 334 384 11,700 -650 Descending Southern California TRACON
Sat 02:42:58 PM 33.9667 -117.8333 281° West 321 369 11,200 -496 Descending Southern California TRACON
Sat 02:43:59 PM 33.9667 -117.9500 270° West 324 373 10,700 -496 Descending Southern California TRACON
Sat 02:44:59 PM 33.9667 -118.0500 270° West 324 373 10,200 -400 Descending Southern California TRACON
Sat 02:45:59 PM 33.9667 -118.1500 270° West 306 352 9,900 -368 Descending Southern California TRACON
Sat 02:46:53 PM 33.9500 -118.2333 256° West 281 323 9,500 -400 Descending Southern California TRACON
Sat 02:47:14 PM 33.9511 -118.2550 274° West 292 336 9,400 -506 Descending Los Angeles Center
Sat 02:48:16 PM 33.8986 -118.3442 235° Southwest 279 321 8,800 -726 Descending Los Angeles Center
Sat 02:49:18 PM 33.8656 -118.4086 238° Southwest 242 278 7,900 -919 Descending Los Angeles Center
Sat 02:50:20 PM 33.8475 -118.4808 253° West 214 246 6,900 -919 Descending Los Angeles Center
Sat 02:51:22 PM 33.8328 -118.5392 253° West 199 229 6,000 -484 Descending Los Angeles Center
Sat 02:52:24 PM 33.8236 -118.6036 260° West 200 230 5,900 -677 Descending Los Angeles Center
Sat 02:53:26 PM 33.8619 -118.6522 314° West 200 230 4,600 -1,258 Descending Los Angeles Center
Sat 02:54:28 PM 33.9114 -118.6186 29° Northeast 196 226 3,300 -1,065 Descending Los Angeles Center
Sat 02:55:30 PM 33.9206 -118.5542 80° East 196 226 2,400 -871 Descending Los Angeles Center
Sat 02:56:32 PM 33.9264 -118.4967 83° East 173 199 1,500 -774 Descending Los Angeles Center
Sat 02:57:34 PM 33.9308 -118.4508 83° East 148 170 800 -532 Descending Los Angeles Center
Sat 02:58:36 PM 33.9375 -118.3992 81° East 144 166 400 -387 Descending Los Angeles Center

Login

Don't have an account? Register now (free) for customized features, flight alerts, and more!